createdAt,value
2022-11-21T00:00:37.283Z,40.83
2022-11-21T00:03:24.375Z,37.53
2022-11-21T00:06:09.999Z,38.40
2022-11-21T00:08:56.308Z,34.50
2022-11-21T00:11:41.897Z,31.95
2022-11-21T00:14:27.487Z,34.50
2022-11-21T00:17:13.195Z,39.58
2022-11-21T00:19:58.707Z,44.53
2022-11-21T00:22:44.415Z,42.42
2022-11-21T00:25:30.120Z,38.25
2022-11-21T00:28:15.418Z,36.72
2022-11-21T00:31:01.003Z,37.28
2022-11-21T00:33:46.243Z,37.03
2022-11-21T00:36:31.590Z,37.40
2022-11-21T00:39:17.241Z,34.10
2022-11-21T00:42:02.551Z,34.72
2022-11-21T00:44:48.049Z,35.17
2022-11-21T00:47:33.437Z,35.90
2022-11-21T00:50:19.021Z,34.88
2022-11-21T00:53:04.638Z,35.08
2022-11-21T00:55:50.151Z,36.08
2022-11-21T00:58:35.683Z,36.10
2022-11-21T01:01:21.212Z,39.13
2022-11-21T01:04:06.468Z,35.53
2022-11-21T01:06:51.919Z,36.35
2022-11-21T01:09:37.215Z,46.03
2022-11-21T01:12:22.606Z,44.20
2022-11-21T01:15:08.693Z,42.10
2022-11-21T01:17:54.082Z,40.85
2022-11-21T01:20:40.427Z,40.17
2022-11-21T01:23:25.710Z,37.67
2022-11-21T01:26:13.766Z,39.28
2022-11-21T01:29:00.716Z,41.17
2022-11-21T01:31:46.062Z,39.10
2022-11-21T01:34:31.548Z,40.97
2022-11-21T01:37:16.822Z,44.10
2022-11-21T01:40:02.317Z,46.33
2022-11-21T01:43:01.735Z,42.67
2022-11-21T01:45:54.460Z,42.28
2022-11-21T01:51:48.001Z,39.95
2022-11-21T01:54:49.063Z,37.90
2022-11-21T01:57:44.739Z,39.25
2022-11-21T02:00:35.754Z,41.45
2022-11-21T02:03:24.799Z,41.97
2022-11-21T02:06:11.750Z,43.20
2022-11-21T02:08:58.817Z,43.92
2022-11-21T02:12:00.536Z,42.38
2022-11-21T02:14:47.011Z,39.10
2022-11-21T02:17:33.226Z,40.55
2022-11-21T02:20:20.691Z,40.22
2022-11-21T02:23:36.628Z,41.00
2022-11-21T02:26:21.868Z,41.65
2022-11-21T02:29:07.279Z,45.47
2022-11-21T02:31:53.667Z,42.40
2022-11-21T02:34:39.035Z,44.80
2022-11-21T02:37:24.440Z,43.42
2022-11-21T02:40:15.579Z,46.85
2022-11-21T02:43:17.235Z,43.05
2022-11-21T02:46:02.736Z,47.30
2022-11-21T02:48:48.343Z,49.28
2022-11-21T02:51:33.504Z,50.70
2022-11-21T02:54:18.993Z,47.92
2022-11-21T02:57:04.451Z,46.65
2022-11-21T02:59:49.873Z,47.45
2022-11-21T03:02:35.984Z,47.08
2022-11-21T03:05:22.573Z,51.15
2022-11-21T03:08:07.926Z,47.55
2022-11-21T03:10:53.494Z,47.97
2022-11-21T03:13:38.925Z,47.42
2022-11-21T03:16:24.312Z,48.92
2022-11-21T03:19:09.648Z,45.53
2022-11-21T03:21:55.574Z,46.15
2022-11-21T03:24:41.891Z,48.33
2022-11-21T03:27:27.407Z,53.53
2022-11-21T03:30:13.345Z,50.75
2022-11-21T03:32:58.874Z,48.20
2022-11-21T03:35:44.121Z,49.03
2022-11-21T03:38:29.581Z,46.90
2022-11-21T03:41:29.952Z,47.28
2022-11-21T03:44:15.112Z,48.60
2022-11-21T03:47:00.538Z,48.50
2022-11-21T03:49:45.847Z,46.40
2022-11-21T03:52:31.232Z,42.30
2022-11-21T03:55:16.756Z,39.20
2022-11-21T03:58:02.050Z,37.35
2022-11-21T04:00:47.982Z,43.75
2022-11-21T04:03:33.755Z,37.33
2022-11-21T04:06:21.456Z,41.45
2022-11-21T04:09:06.508Z,42.92
2022-11-21T04:11:52.435Z,40.78
2022-11-21T04:14:37.856Z,40.25
2022-11-21T04:17:23.349Z,36.13
2022-11-21T04:20:09.671Z,38.65
2022-11-21T04:22:54.976Z,35.00
2022-11-21T04:25:41.311Z,36.10
2022-11-21T04:28:26.557Z,35.33
2022-11-21T04:31:12.236Z,38.80
2022-11-21T04:33:57.632Z,36.08
2022-11-21T04:36:43.125Z,38.03
2022-11-21T04:39:28.667Z,40.15
2022-11-21T04:42:14.095Z,38.30
2022-11-21T04:44:59.440Z,40.72
2022-11-21T04:47:46.550Z,46.17
2022-11-21T04:50:32.273Z,44.45
2022-11-21T04:53:17.325Z,41.25
2022-11-21T04:56:05.621Z,38.70
2022-11-21T04:58:52.946Z,38.53
2022-11-21T05:01:38.365Z,32.95
2022-11-21T05:04:23.719Z,38.88
2022-11-21T05:07:09.275Z,39.47
2022-11-21T05:09:54.713Z,42.78
2022-11-21T05:13:09.208Z,41.13
2022-11-21T05:15:57.921Z,37.30
2022-11-21T05:18:43.319Z,34.25
2022-11-21T05:21:28.607Z,31.35
2022-11-21T05:24:14.178Z,32.90
2022-11-21T05:26:59.710Z,31.50
2022-11-21T05:29:45.549Z,39.90
2022-11-21T05:32:30.830Z,40.08
2022-11-21T05:35:16.285Z,38.03
2022-11-21T05:38:01.635Z,36.75
2022-11-21T05:40:47.180Z,39.88
2022-11-21T05:43:47.554Z,37.65
2022-11-21T05:46:32.715Z,34.67
2022-11-21T05:49:18.019Z,33.95
2022-11-21T05:52:03.682Z,38.17
2022-11-21T05:54:49.024Z,36.50
2022-11-21T05:57:34.612Z,33.63
2022-11-21T06:00:20.121Z,37.88
2022-11-21T06:03:25.293Z,37.25
2022-11-21T06:06:13.519Z,35.28
2022-11-21T06:08:59.156Z,34.95
2022-11-21T06:11:44.478Z,36.38
2022-11-21T06:14:30.120Z,37.45
2022-11-21T06:17:16.002Z,37.22
2022-11-21T06:20:01.813Z,35.50
2022-11-21T06:22:46.872Z,36.58
2022-11-21T06:25:32.124Z,37.35
2022-11-21T06:28:17.363Z,42.00
2022-11-21T06:31:07.444Z,39.83
2022-11-21T06:33:57.702Z,40.05
2022-11-21T06:36:44.640Z,36.65
2022-11-21T06:39:30.084Z,34.90
2022-11-21T06:42:15.595Z,38.53
2022-11-21T06:45:00.936Z,39.40
2022-11-21T06:47:46.619Z,42.50
2022-11-21T06:50:32.140Z,43.90
2022-11-21T06:53:17.775Z,42.95
2022-11-21T06:56:03.982Z,41.90
2022-11-21T06:58:49.079Z,42.25
2022-11-21T07:01:34.674Z,49.13
2022-11-21T07:04:20.211Z,47.13
2022-11-21T07:07:05.688Z,48.80
2022-11-21T07:09:51.281Z,47.42
2022-11-21T07:12:55.036Z,43.08
2022-11-21T07:15:40.698Z,44.42
2022-11-21T07:18:26.899Z,50.55
2022-11-21T07:21:12.162Z,46.95
2022-11-21T07:23:57.675Z,41.58
2022-11-21T07:26:43.404Z,38.28
2022-11-21T07:29:29.177Z,37.20
2022-11-21T07:32:15.223Z,33.58
2022-11-21T07:35:00.296Z,39.72
2022-11-21T07:37:45.825Z,37.97
2022-11-21T07:40:34.625Z,41.33
2022-11-21T07:43:20.115Z,38.95
2022-11-21T07:46:05.607Z,41.90
2022-11-21T07:48:51.035Z,41.22
2022-11-21T07:51:36.475Z,41.88
2022-11-21T07:54:21.826Z,41.72
2022-11-21T07:57:07.196Z,41.45
2022-11-21T07:59:52.645Z,37.90
2022-11-21T08:02:38.346Z,46.67
2022-11-21T08:05:24.475Z,41.42
2022-11-21T08:08:11.365Z,45.15
2022-11-21T08:10:56.637Z,42.60
2022-11-21T08:13:42.000Z,39.38
2022-11-21T08:16:28.164Z,43.00
2022-11-21T08:19:13.710Z,38.03
2022-11-21T08:21:59.174Z,42.70
2022-11-21T08:24:44.632Z,42.40
2022-11-21T08:27:30.244Z,43.15
2022-11-21T08:30:15.746Z,43.60
2022-11-21T08:33:01.756Z,43.55
2022-11-21T08:35:47.240Z,47.13
2022-11-21T08:38:33.379Z,45.17
2022-11-21T08:41:56.522Z,41.97
2022-11-21T08:47:27.146Z,39.70
2022-11-21T08:50:12.545Z,39.80
2022-11-21T08:53:02.015Z,40.15
2022-11-21T08:55:47.523Z,38.95
2022-11-21T08:58:32.987Z,37.50
2022-11-21T09:01:18.542Z,34.50
2022-11-21T09:04:04.959Z,32.50
2022-11-21T09:06:50.411Z,31.77
2022-11-21T09:09:35.847Z,37.92
2022-11-21T09:12:21.364Z,35.65
2022-11-21T09:15:25.829Z,35.75
2022-11-21T09:18:11.148Z,37.60
2022-11-21T09:20:56.662Z,33.92
2022-11-21T09:23:42.400Z,34.20
2022-11-21T09:26:27.470Z,35.50
2022-11-21T09:29:15.029Z,34.63
2022-11-21T09:32:00.268Z,35.55
2022-11-21T09:34:45.588Z,35.13
2022-11-21T09:37:35.942Z,39.38
2022-11-21T09:40:21.766Z,34.75
2022-11-21T09:43:26.075Z,33.88
2022-11-21T09:46:21.608Z,37.85
2022-11-21T09:49:10.463Z,31.85
2022-11-21T09:51:57.673Z,31.42
2022-11-21T09:54:52.608Z,34.97
2022-11-21T09:57:37.664Z,33.75
2022-11-21T10:00:25.356Z,33.40
2022-11-21T10:03:13.888Z,37.00
2022-11-21T10:06:03.781Z,35.30
2022-11-21T10:09:26.668Z,34.03
2022-11-21T10:12:37.786Z,34.42
2022-11-21T10:15:42.174Z,30.10
2022-11-21T10:18:33.674Z,27.88
2022-11-21T10:21:32.619Z,30.60
2022-11-21T10:24:42.641Z,32.92
2022-11-21T10:27:37.375Z,32.15
2022-11-21T10:30:23.286Z,32.35
2022-11-21T10:33:17.979Z,30.83
2022-11-21T10:36:20.895Z,33.75
2022-11-21T10:39:25.687Z,31.00
2022-11-21T10:42:34.931Z,33.60
2022-11-21T10:45:20.370Z,28.35
2022-11-21T10:48:08.322Z,28.77
2022-11-21T10:51:25.305Z,32.78
2022-11-21T10:54:31.697Z,28.27
2022-11-21T10:57:20.123Z,25.77
2022-11-21T11:00:15.034Z,26.20
2022-11-21T11:03:06.279Z,29.17
2022-11-21T11:05:59.215Z,26.73
2022-11-21T11:11:39.353Z,25.23
2022-11-21T11:14:32.123Z,23.92
2022-11-21T11:17:25.604Z,24.77
2022-11-21T11:20:44.883Z,23.83
2022-11-21T11:23:30.456Z,28.13
2022-11-21T11:26:23.778Z,24.23
2022-11-21T11:29:14.645Z,23.42
2022-11-21T11:32:00.948Z,23.73
2022-11-21T11:35:20.535Z,23.23
2022-11-21T11:38:10.534Z,22.35
2022-11-21T11:40:58.192Z,26.02
2022-11-21T11:44:28.132Z,22.13
2022-11-21T11:47:30.953Z,23.20
2022-11-21T11:50:19.888Z,22.35
2022-11-21T11:53:21.445Z,23.65
2022-11-21T11:56:33.225Z,24.77
2022-11-21T11:59:38.954Z,26.65
2022-11-21T12:02:33.512Z,26.85
2022-11-21T12:05:25.713Z,24.45
2022-11-21T12:08:42.969Z,29.00
2022-11-21T12:12:08.756Z,27.45
2022-11-21T12:15:24.989Z,26.63
2022-11-21T12:18:19.812Z,26.65
2022-11-21T12:21:15.556Z,25.55
2022-11-21T12:24:03.792Z,28.75
2022-11-21T12:27:19.106Z,26.40
2022-11-21T12:30:36.759Z,28.33
2022-11-21T12:33:23.475Z,24.55
2022-11-21T12:36:22.573Z,23.45
2022-11-21T12:39:37.191Z,26.40
2022-11-21T12:42:55.411Z,24.67
2022-11-21T12:46:05.779Z,24.23
2022-11-21T12:49:43.489Z,24.77
2022-11-21T12:52:56.303Z,23.30
2022-11-21T12:55:42.344Z,24.70
2022-11-21T12:58:39.724Z,23.95
2022-11-21T13:01:36.774Z,23.08
2022-11-21T13:04:26.593Z,23.77
2022-11-21T13:07:12.861Z,20.52
2022-11-21T13:10:02.484Z,18.40
2022-11-21T13:12:59.820Z,18.92
2022-11-21T13:15:57.735Z,21.92
2022-11-21T13:18:48.151Z,22.25
2022-11-21T13:21:48.552Z,18.10
2022-11-21T13:24:47.260Z,16.95
2022-11-21T13:27:39.123Z,17.25
2022-11-21T13:30:25.815Z,18.00
2022-11-21T13:33:34.200Z,18.23
2022-11-21T13:36:28.554Z,27.88
2022-11-21T13:39:16.775Z,22.00
2022-11-21T13:42:25.798Z,26.35
2022-11-21T13:45:48.251Z,23.45
2022-11-21T13:48:57.001Z,25.73
2022-11-21T13:51:53.810Z,23.58
2022-11-21T13:55:08.995Z,23.23
2022-11-21T13:58:09.078Z,25.02
2022-11-21T14:01:07.324Z,26.27
2022-11-21T14:04:21.219Z,28.35
2022-11-21T14:07:30.092Z,25.58
2022-11-21T14:10:25.206Z,30.65
2022-11-21T14:13:28.313Z,25.15
2022-11-21T14:16:41.795Z,20.33
2022-11-21T14:19:28.151Z,21.58
2022-11-21T14:22:50.539Z,23.35
2022-11-21T14:25:48.302Z,23.03
2022-11-21T14:28:34.894Z,19.77
2022-11-21T14:31:21.109Z,23.00
2022-11-21T14:34:09.542Z,19.80
2022-11-21T14:36:57.734Z,22.60
2022-11-21T14:39:44.938Z,19.15
2022-11-21T14:42:37.044Z,17.05
2022-11-21T14:45:23.877Z,17.80
2022-11-21T14:48:12.951Z,18.52
2022-11-21T14:51:01.865Z,20.30
2022-11-21T14:53:49.662Z,13.30
2022-11-21T14:56:35.004Z,17.90
2022-11-21T14:59:25.224Z,15.27
2022-11-21T15:02:17.751Z,11.45
2022-11-21T15:05:07.914Z,11.02
2022-11-21T15:08:10.466Z,14.85
2022-11-21T15:11:00.625Z,13.80
2022-11-21T15:16:57.926Z,11.77
2022-11-21T15:19:44.871Z,9.82
2022-11-21T15:22:36.779Z,10.00
2022-11-21T15:25:24.402Z,11.77
2022-11-21T15:28:15.663Z,10.98
2022-11-21T15:31:21.539Z,11.90
2022-11-21T15:37:18.224Z,14.35
2022-11-21T15:40:03.727Z,13.07
2022-11-21T15:42:50.186Z,10.45
2022-11-21T15:45:35.987Z,9.98
2022-11-21T15:48:23.639Z,12.85
2022-11-21T15:51:10.939Z,13.95
2022-11-21T15:53:56.011Z,13.75
2022-11-21T15:56:41.965Z,12.68
2022-11-21T15:59:27.543Z,12.48
2022-11-21T16:02:14.488Z,10.98
2022-11-21T16:04:59.588Z,13.40
2022-11-21T16:07:45.332Z,13.27
2022-11-21T16:10:30.957Z,13.57
2022-11-21T16:13:16.183Z,13.25
2022-11-21T16:16:02.164Z,15.68
2022-11-21T16:18:47.977Z,13.20
2022-11-21T16:21:33.247Z,12.70
2022-11-21T16:24:18.872Z,10.02
2022-11-21T16:27:04.471Z,10.65
2022-11-21T16:29:49.803Z,11.38
2022-11-21T16:32:35.319Z,9.77
2022-11-21T16:35:20.927Z,12.70
2022-11-21T16:38:10.036Z,13.95
2022-11-21T16:41:01.261Z,13.18
2022-11-21T16:43:49.810Z,9.00
2022-11-21T16:46:40.685Z,9.38
2022-11-21T16:49:25.751Z,13.55
2022-11-21T16:52:11.596Z,9.48
2022-11-21T16:54:57.879Z,11.45
2022-11-21T16:57:43.594Z,10.05
2022-11-21T17:00:29.241Z,12.50
2022-11-21T17:03:14.765Z,12.43
2022-11-21T17:06:00.641Z,10.45
2022-11-21T17:08:47.192Z,13.38
2022-11-21T17:11:32.666Z,14.68
2022-11-21T17:14:18.335Z,9.43
2022-11-21T17:17:03.763Z,12.77
2022-11-21T17:19:49.320Z,13.70
2022-11-21T17:22:35.405Z,12.45
2022-11-21T17:25:21.082Z,12.30
2022-11-21T17:28:06.324Z,11.27
2022-11-21T17:30:51.667Z,15.77
2022-11-21T17:33:37.487Z,11.93
2022-11-21T17:36:24.928Z,12.60
2022-11-21T17:39:10.061Z,11.90
2022-11-21T17:41:55.691Z,13.75
2022-11-21T17:44:40.883Z,12.93
2022-11-21T17:47:26.382Z,13.52
2022-11-21T17:50:12.228Z,13.50
2022-11-21T17:52:57.804Z,12.10
2022-11-21T17:55:42.848Z,12.93
2022-11-21T17:58:29.458Z,12.40
2022-11-21T18:01:19.361Z,10.93
2022-11-21T18:04:11.830Z,11.68
2022-11-21T18:07:00.042Z,12.07
2022-11-21T18:09:45.662Z,15.05
2022-11-21T18:12:30.929Z,10.52
2022-11-21T18:15:16.651Z,11.32
2022-11-21T18:18:01.886Z,11.23
2022-11-21T18:20:47.731Z,15.05
2022-11-21T18:23:33.060Z,18.15
2022-11-21T18:26:22.279Z,14.23
2022-11-21T18:32:14.867Z,11.57
2022-11-21T18:35:00.344Z,14.23
2022-11-21T18:37:46.983Z,14.43
2022-11-21T18:40:32.595Z,13.35
2022-11-21T18:43:18.448Z,13.48
2022-11-21T18:46:09.324Z,15.15
2022-11-21T18:49:02.767Z,14.00
2022-11-21T18:51:50.167Z,12.63
2022-11-21T18:54:35.778Z,11.52
2022-11-21T18:57:21.146Z,16.35
2022-11-21T19:00:07.422Z,11.32
2022-11-21T19:02:52.618Z,12.98
2022-11-21T19:05:41.771Z,12.23
2022-11-21T19:08:27.495Z,13.40
2022-11-21T19:11:15.291Z,11.30
2022-11-21T19:14:01.065Z,9.52
2022-11-21T19:16:46.222Z,12.48
2022-11-21T19:19:34.485Z,15.50
2022-11-21T19:22:20.343Z,12.38
2022-11-21T19:25:06.034Z,17.27
2022-11-21T19:27:51.483Z,12.65
2022-11-21T19:30:36.651Z,13.35
2022-11-21T19:33:22.296Z,13.18
2022-11-21T19:36:11.375Z,12.45
2022-11-21T19:38:56.568Z,11.88
2022-11-21T19:41:42.020Z,11.70
2022-11-21T19:44:27.424Z,15.43
2022-11-21T19:47:13.336Z,11.77
2022-11-21T19:49:58.791Z,11.60
2022-11-21T19:52:44.179Z,13.95
2022-11-21T19:55:29.791Z,13.77
2022-11-21T19:58:14.822Z,9.57
2022-11-21T20:01:14.420Z,12.13
2022-11-21T20:04:02.031Z,11.85
2022-11-21T20:06:47.842Z,14.95
2022-11-21T20:09:34.716Z,11.82
2022-11-21T20:12:20.551Z,11.93
2022-11-21T20:15:06.213Z,11.35
2022-11-21T20:17:51.381Z,13.55
2022-11-21T20:20:36.507Z,11.80
2022-11-21T20:23:22.090Z,10.63
2022-11-21T20:26:08.874Z,13.73
2022-11-21T20:28:54.778Z,13.15
2022-11-21T20:31:40.593Z,12.13
2022-11-21T20:34:26.155Z,9.90
2022-11-21T20:37:11.184Z,10.57
2022-11-21T20:39:56.912Z,12.15
2022-11-21T20:42:42.166Z,13.38
2022-11-21T20:48:35.560Z,11.27
2022-11-21T20:54:26.440Z,13.73
2022-11-21T20:57:15.176Z,13.20
2022-11-21T21:00:00.637Z,13.30
2022-11-21T21:02:46.307Z,14.38
2022-11-21T21:05:31.782Z,12.70
2022-11-21T21:08:17.399Z,13.60
2022-11-21T21:11:06.613Z,14.05
2022-11-21T21:13:52.193Z,11.40
2022-11-21T21:16:37.598Z,12.35
2022-11-21T21:19:24.491Z,12.07
2022-11-21T21:22:09.928Z,11.50
2022-11-21T21:24:55.488Z,11.50
2022-11-21T21:27:40.936Z,12.88
2022-11-21T21:30:26.420Z,12.70
2022-11-21T21:33:13.700Z,17.15
2022-11-21T21:36:05.223Z,14.70
2022-11-21T21:38:51.441Z,11.73
2022-11-21T21:41:40.025Z,13.48
2022-11-21T21:44:31.447Z,15.25
2022-11-21T21:47:21.279Z,14.75
2022-11-21T21:50:10.255Z,11.35
2022-11-21T21:53:00.620Z,11.05
2022-11-21T21:55:46.117Z,13.20
2022-11-21T21:58:36.548Z,15.85
2022-11-21T22:01:30.477Z,16.85
2022-11-21T22:04:16.069Z,14.60
2022-11-21T22:07:02.715Z,17.27
2022-11-21T22:09:48.616Z,14.82
2022-11-21T22:12:33.702Z,13.40
2022-11-21T22:15:19.289Z,15.02
2022-11-21T22:18:04.689Z,13.15
2022-11-21T22:20:50.803Z,14.45
2022-11-21T22:23:36.247Z,12.52
2022-11-21T22:26:22.060Z,12.68
2022-11-21T22:29:07.754Z,15.32
2022-11-21T22:31:52.994Z,13.45
2022-11-21T22:34:38.438Z,12.43
2022-11-21T22:37:24.243Z,15.02
2022-11-21T22:40:10.214Z,13.95
2022-11-21T22:42:56.139Z,15.68
2022-11-21T22:45:41.252Z,15.25
2022-11-21T22:48:27.067Z,14.48
2022-11-21T22:51:14.361Z,14.38
2022-11-21T22:53:59.998Z,15.38
2022-11-21T22:56:45.675Z,12.77
2022-11-21T22:59:31.458Z,14.43
2022-11-21T23:02:16.795Z,13.10
2022-11-21T23:05:02.809Z,12.32
2022-11-21T23:07:48.208Z,14.48
2022-11-21T23:10:33.678Z,15.32
2022-11-21T23:13:19.098Z,16.67
2022-11-21T23:16:06.145Z,17.40
2022-11-21T23:18:53.035Z,13.77
2022-11-21T23:21:38.551Z,12.40
2022-11-21T23:24:23.870Z,13.70
2022-11-21T23:27:09.383Z,14.43
2022-11-21T23:29:54.617Z,15.38
2022-11-21T23:32:40.136Z,13.35
2022-11-21T23:35:25.460Z,19.50
2022-11-21T23:38:12.225Z,12.43
2022-11-21T23:40:57.631Z,15.23
2022-11-21T23:43:43.043Z,17.90
2022-11-21T23:46:29.553Z,18.05
2022-11-21T23:49:15.028Z,15.65
2022-11-21T23:52:00.319Z,13.63
2022-11-21T23:54:46.094Z,14.30
2022-11-21T23:57:31.382Z,15.93
